Time;durP1;ratioP1;P1;durP2;ratioP2;P2;SDS_P1;SDS_P2;PMS_P1;PMS_P2;Temp;Humidity;BMP_temperature;BMP_pressure;BME280_temperature;BME280_humidity;BME280_pressure;Samples;Min_cycle;Max_cycle;Signal;HPM_P1;HPM_P2
2021/08/17 00:01:38;;;;;;;5.67;2.50;;;14.90;99.90;;;;;;5028115;28;20190;-37
2021/08/17 00:04:04;;;;;;;7.33;2.73;;;15.00;99.90;;;;;;5026979;28;20198;-38
2021/08/17 00:06:30;;;;;;;10.40;3.40;;;15.00;99.90;;;;;;5033162;28;20182;-37
2021/08/17 00:08:56;;;;;;;5.73;2.67;;;15.00;99.90;;;;;;5024837;28;20835;-38
2021/08/17 00:11:21;;;;;;;6.80;2.90;;;15.00;99.90;;;;;;5026990;28;20503;-37
2021/08/17 00:13:47;;;;;;;4.40;2.60;;;15.00;99.90;;;;;;5039071;28;20240;-37
2021/08/17 00:16:14;;;;;;;6.80;2.83;;;14.90;99.90;;;;;;5045286;28;20186;-37
2021/08/17 00:18:40;;;;;;;6.60;2.90;;;14.90;99.90;;;;;;5025541;28;20183;-37
2021/08/17 00:21:05;;;;;;;8.33;3.23;;;14.90;99.90;;;;;;5029256;28;20934;-37
2021/08/17 00:23:31;;;;;;;9.00;3.10;;;14.90;99.90;;;;;;5025405;28;20198;-37
2021/08/17 00:25:57;;;;;;;8.13;2.80;;;14.90;99.90;;;;;;5024744;28;20190;-38
2021/08/17 00:28:23;;;;;;;8.30;3.20;;;14.80;99.90;;;;;;5037248;28;20435;-37
2021/08/17 00:30:48;;;;;;;6.13;2.77;;;14.90;99.90;;;;;;5036259;28;20315;-37
2021/08/17 00:33:14;;;;;;;5.77;2.93;;;14.90;99.90;;;;;;5025327;28;20613;-37
2021/08/17 00:35:39;;;;;;;6.33;2.80;;;14.80;99.90;;;;;;5037533;28;20709;-37
2021/08/17 00:38:06;;;;;;;6.47;3.37;;;14.80;99.90;;;;;;5029367;28;20585;-37
2021/08/17 00:40:33;;;;;;;7.20;3.07;;;14.80;99.90;;;;;;5031906;28;20285;-37
2021/08/17 00:42:59;;;;;;;6.10;2.70;;;14.80;99.90;;;;;;5029797;28;20729;-38
2021/08/17 00:45:27;;;;;;;6.80;3.23;;;14.80;99.90;;;;;;5036583;28;20516;-37
2021/08/17 00:47:57;;;;;;;4.83;2.70;;;14.80;99.90;;;;;;5025223;28;20567;-37
2021/08/17 00:50:27;;;;;;;4.00;2.70;;;14.80;99.90;;;;;;5033698;28;20436;-37
2021/08/17 00:52:54;;;;;;;7.73;3.70;;;14.80;99.90;;;;;;5025077;28;20413;-37
2021/08/17 00:55:21;;;;;;;6.17;3.30;;;14.90;99.90;;;;;;5025124;28;20497;-37
2021/08/17 00:57:47;;;;;;;10.60;4.00;;;14.90;99.90;;;;;;5030751;28;20486;-37
2021/08/17 01:00:14;;;;;;;7.10;3.87;;;14.90;99.90;;;;;;5037399;28;20439;-37
2021/08/17 01:02:44;;;;;;;5.47;2.80;;;14.80;99.90;;;;;;5028873;28;20449;-38
2021/08/17 01:05:11;;;;;;;7.30;3.30;;;14.80;99.90;;;;;;5033499;28;20431;-37
2021/08/17 01:07:38;;;;;;;8.27;3.97;;;14.70;99.90;;;;;;5028975;28;20476;-37
2021/08/17 01:10:06;;;;;;;7.93;3.50;;;14.80;99.90;;;;;;5029910;28;20435;-37
2021/08/17 01:12:33;;;;;;;8.30;3.30;;;14.80;99.90;;;;;;5036115;28;20440;-37
2021/08/17 01:14:59;;;;;;;7.00;3.57;;;14.60;99.90;;;;;;5045804;28;20459;-37
2021/08/17 01:17:25;;;;;;;8.17;3.93;;;14.70;99.90;;;;;;5037618;28;20922;-37
2021/08/17 01:19:51;;;;;;;7.30;3.70;;;14.60;99.90;;;;;;5027355;28;20195;-38
2021/08/17 01:22:17;;;;;;;6.10;4.00;;;14.60;99.90;;;;;;5027621;28;20288;-37
2021/08/17 01:24:42;;;;;;;8.67;4.20;;;14.60;99.90;;;;;;5028566;28;21046;-38
2021/08/17 01:27:12;;;;;;;6.50;3.80;;;14.70;99.90;;;;;;5028502;28;20467;-37
2021/08/17 01:29:39;;;;;;;6.20;3.80;;;14.70;99.90;;;;;;5039775;28;20378;-37
2021/08/17 01:32:06;;;;;;;6.07;4.07;;;14.60;99.90;;;;;;5032928;28;20710;-37
2021/08/17 01:34:31;;;;;;;8.40;4.30;;;14.60;99.90;;;;;;5026556;28;21010;-37
2021/08/17 01:36:57;;;;;;;10.07;5.03;;;14.60;99.90;;;;;;5037800;28;20425;-37
2021/08/17 01:39:23;;;;;;;6.40;3.87;;;14.50;99.90;;;;;;5041990;28;20178;-37
2021/08/17 01:41:49;;;;;;;8.33;3.60;;;14.50;99.90;;;;;;5043413;28;20183;-38
2021/08/17 01:44:15;;;;;;;10.60;4.53;;;14.40;99.90;;;;;;5028089;28;20202;-37
2021/08/17 01:46:42;;;;;;;13.20;5.10;;;14.40;99.90;;;;;;5037440;28;20520;-37
2021/08/17 01:49:08;;;;;;;8.90;4.37;;;14.30;99.90;;;;;;5026840;28;20804;-37
2021/08/17 01:51:34;;;;;;;7.77;4.93;;;14.30;99.90;;;;;;5032922;28;20835;-37
2021/08/17 01:54:04;;;;;;;7.70;4.40;;;14.20;99.90;;;;;;5027791;28;20465;-37
2021/08/17 01:56:30;;;;;;;7.23;4.53;;;14.20;99.90;;;;;;5027272;28;20429;-37
2021/08/17 01:58:56;;;;;;;6.90;4.57;;;14.20;99.90;;;;;;5028625;28;20793;-37
2021/08/17 02:01:22;;;;;;;10.47;5.00;;;14.20;99.90;;;;;;5036094;28;20517;-38
2021/08/17 02:03:47;;;;;;;16.83;5.13;;;14.10;99.90;;;;;;5027431;28;20216;-38
2021/08/17 02:06:14;;;;;;;10.40;4.90;;;14.10;99.90;;;;;;5028989;28;20585;-38
2021/08/17 02:08:40;;;;;;;11.70;5.60;;;14.00;99.90;;;;;;5026797;28;20213;-37
2021/08/17 02:11:06;;;;;;;12.87;6.40;;;14.00;99.90;;;;;;5027915;28;20425;-37
2021/08/17 02:13:32;;;;;;;11.03;5.73;;;14.00;99.90;;;;;;5036103;28;20477;-38
2021/08/17 02:16:00;;;;;;;8.00;6.00;;;14.00;99.90;;;;;;5033535;28;20200;-37
2021/08/17 02:18:30;;;;;;;9.40;6.13;;;14.00;99.90;;;;;;5027012;28;20445;-37
2021/08/17 02:20:59;;;;;;;14.23;6.53;;;14.00;99.90;;;;;;5034316;28;20820;-37
2021/08/17 02:23:25;;;;;;;17.13;8.03;;;13.90;99.90;;;;;;5028939;28;20437;-37
2021/08/17 02:25:51;;;;;;;11.63;7.17;;;14.00;99.90;;;;;;5026173;28;20890;-37
2021/08/17 02:28:19;;;;;;;12.00;6.90;;;13.90;99.90;;;;;;5028495;28;20856;-37
2021/08/17 02:30:48;;;;;;;13.73;7.03;;;14.00;99.90;;;;;;5032476;28;20420;-37
2021/08/17 02:33:14;;;;;;;14.33;8.30;;;14.00;99.90;;;;;;5026800;28;20923;-37
2021/08/17 02:35:41;;;;;;;16.10;9.30;;;14.00;99.90;;;;;;5031978;28;20416;-37
2021/08/17 02:38:07;;;;;;;15.20;8.07;;;14.00;99.90;;;;;;5032140;28;20443;-37
2021/08/17 02:40:33;;;;;;;14.60;8.97;;;14.00;99.90;;;;;;5033889;28;20429;-37
2021/08/17 02:42:59;;;;;;;18.23;10.37;;;14.00;99.90;;;;;;5029843;28;20452;-37
2021/08/17 02:45:25;;;;;;;15.13;9.87;;;13.90;99.90;;;;;;5039193;28;20507;-37
2021/08/17 02:47:56;;;;;;;22.00;10.37;;;14.00;99.90;;;;;;5037409;28;20859;-37
2021/08/17 02:50:21;;;;;;;16.30;10.43;;;13.90;99.90;;;;;;5026127;28;20794;-37
2021/08/17 02:52:47;;;;;;;15.97;9.50;;;13.90;99.90;;;;;;5026749;28;20420;-37
2021/08/17 02:55:13;;;;;;;21.33;11.83;;;13.90;99.90;;;;;;5026333;28;20735;-37
2021/08/17 02:57:47;;;;;;;20.20;12.33;;;13.90;99.90;;;;;;5030901;28;20220;-37
2021/08/17 03:00:13;;;;;;;22.30;12.70;;;13.90;99.90;;;;;;5037429;28;20335;-37
2021/08/17 03:02:39;;;;;;;19.27;12.33;;;13.90;99.90;;;;;;5032501;28;20461;-38
2021/08/17 03:05:05;;;;;;;22.20;13.53;;;13.90;99.90;;;;;;5026572;28;20456;-37
2021/08/17 03:07:30;;;;;;;29.80;14.80;;;14.00;99.90;;;;;;5037838;28;20206;-37
2021/08/17 03:09:56;;;;;;;21.83;13.93;;;14.00;99.90;;;;;;5027924;28;20186;-37
2021/08/17 03:12:21;;;;;;;22.97;14.93;;;14.00;99.90;;;;;;5026154;28;20542;-37
2021/08/17 03:14:47;;;;;;;29.60;15.00;;;14.00;99.90;;;;;;5036269;28;20202;-37
2021/08/17 03:17:13;;;;;;;25.60;15.30;;;13.90;99.90;;;;;;5033294;28;20186;-37
2021/08/17 03:19:38;;;;;;;26.70;16.77;;;13.90;99.90;;;;;;5026075;28;20175;-37
2021/08/17 03:22:04;;;;;;;29.73;17.17;;;13.90;99.90;;;;;;5031906;28;20269;-37
2021/08/17 03:24:30;;;;;;;26.17;16.50;;;13.90;99.90;;;;;;5026436;28;20435;-37
2021/08/17 03:26:55;;;;;;;27.77;16.80;;;14.00;99.90;;;;;;5025800;28;20888;-37
2021/08/17 03:29:21;;;;;;;24.23;15.43;;;14.00;99.90;;;;;;5035838;28;20615;-37
2021/08/17 03:31:47;;;;;;;26.30;16.10;;;14.00;99.90;;;;;;5036526;28;20607;-38
2021/08/17 03:34:13;;;;;;;29.53;15.70;;;14.00;99.90;;;;;;5033124;28;20367;-37
2021/08/17 03:36:38;;;;;;;30.47;15.90;;;14.00;99.90;;;;;;5029180;28;20417;-37
2021/08/17 03:39:04;;;;;;;28.43;15.50;;;14.00;99.90;;;;;;5036167;28;20408;-37
2021/08/17 03:41:30;;;;;;;30.20;16.73;;;14.00;99.90;;;;;;5045345;28;20185;-37
2021/08/17 03:43:56;;;;;;;27.87;16.67;;;14.00;99.90;;;;;;5036266;28;20185;-37
2021/08/17 03:46:22;;;;;;;30.67;16.87;;;14.00;99.90;;;;;;5036213;28;20198;-38
2021/08/17 03:48:47;;;;;;;30.67;16.63;;;14.00;99.90;;;;;;5031039;28;20948;-37
2021/08/17 03:51:13;;;;;;;27.10;17.27;;;14.00;99.90;;;;;;5030778;28;20737;-37
2021/08/17 03:53:39;;;;;;;28.67;16.70;;;14.00;99.90;;;;;;5030328;28;20231;-38
2021/08/17 03:56:04;;;;;;;22.80;15.43;;;14.00;99.90;;;;;;5025449;28;20248;-37
2021/08/17 03:58:30;;;;;;;27.57;16.60;;;14.00;99.90;;;;;;5027253;28;20201;-37
2021/08/17 04:00:56;;;;;;;28.93;16.10;;;14.00;99.90;;;;;;5036892;28;20273;-38
2021/08/17 04:03:21;;;;;;;27.53;17.20;;;14.00;99.90;;;;;;5029743;28;20653;-37
2021/08/17 04:05:47;;;;;;;30.13;16.50;;;14.00;99.90;;;;;;5026920;28;20302;-37
2021/08/17 04:08:13;;;;;;;29.60;16.93;;;13.90;99.90;;;;;;5030448;28;20210;-37
2021/08/17 04:10:39;;;;;;;30.80;17.33;;;14.00;99.90;;;;;;5026215;28;20182;-37
2021/08/17 04:13:05;;;;;;;28.60;15.93;;;14.00;99.90;;;;;;5025032;28;20190;-37
2021/08/17 04:15:30;;;;;;;27.17;15.97;;;14.00;99.90;;;;;;5028226;28;20453;-37
2021/08/17 04:17:56;;;;;;;26.20;15.53;;;14.00;99.90;;;;;;5042880;28;20281;-37
2021/08/17 04:20:22;;;;;;;27.97;17.53;;;14.10;99.90;;;;;;5024948;28;20194;-37
2021/08/17 04:22:47;;;;;;;28.27;16.90;;;14.10;99.90;;;;;;5027868;28;20196;-37
2021/08/17 04:25:13;;;;;;;29.00;16.23;;;14.10;99.90;;;;;;5025383;28;20190;-37
2021/08/17 04:27:39;;;;;;;28.97;17.37;;;14.10;99.90;;;;;;5025149;28;22207;-37
2021/08/17 04:30:06;;;;;;;34.27;17.43;;;14.10;99.90;;;;;;5033966;28;20228;-38
2021/08/17 04:32:32;;;;;;;29.47;16.27;;;14.00;99.90;;;;;;5034620;28;20595;-37
2021/08/17 04:34:57;;;;;;;29.07;17.73;;;14.00;99.90;;;;;;5025946;28;20551;-38
2021/08/17 04:37:23;;;;;;;30.13;17.27;;;13.90;99.90;;;;;;5042127;28;20182;-37
2021/08/17 04:39:49;;;;;;;34.70;17.47;;;14.00;99.90;;;;;;5046965;28;20601;-38
2021/08/17 04:42:14;;;;;;;33.90;19.07;;;14.00;99.90;;;;;;5048849;28;21103;-37
2021/08/17 04:44:40;;;;;;;30.67;18.10;;;14.00;99.90;;;;;;5039767;28;20204;-37
2021/08/17 04:47:06;;;;;;;29.90;17.10;;;14.00;99.90;;;;;;5033223;28;20275;-38
2021/08/17 04:49:32;;;;;;;33.13;16.93;;;14.10;99.90;;;;;;5028460;28;20195;-38
2021/08/17 04:51:58;;;;;;;31.73;16.60;;;14.00;99.90;;;;;;5037311;28;20206;-38
2021/08/17 04:54:23;;;;;;;34.60;18.00;;;14.00;99.90;;;;;;5028521;28;20234;-38
2021/08/17 04:56:49;;;;;;;30.80;17.53;;;14.10;99.90;;;;;;5028851;28;20455;-37
2021/08/17 04:59:15;;;;;;;31.67;17.13;;;14.10;99.90;;;;;;5033653;28;20190;-37
2021/08/17 05:01:41;;;;;;;29.40;17.20;;;14.10;99.90;;;;;;5043338;28;20811;-37
2021/08/17 05:04:08;;;;;;;26.63;16.70;;;14.10;99.90;;;;;;5041149;28;20863;-37
2021/08/17 05:06:34;;;;;;;27.50;15.63;;;14.20;99.90;;;;;;5031194;28;20190;-37
2021/08/17 05:09:00;;;;;;;28.83;15.90;;;14.20;99.90;;;;;;5028397;28;20460;-37
2021/08/17 05:11:25;;;;;;;32.13;17.80;;;14.30;99.90;;;;;;5029239;28;20425;-38
2021/08/17 05:13:51;;;;;;;33.13;17.10;;;14.20;99.90;;;;;;5032666;28;20373;-38
2021/08/17 05:16:17;;;;;;;29.17;16.73;;;14.30;99.90;;;;;;5042175;28;20213;-38
2021/08/17 05:18:44;;;;;;;28.97;17.20;;;14.30;99.90;;;;;;5043645;28;20189;-37
2021/08/17 05:21:10;;;;;;;30.20;15.93;;;14.40;99.90;;;;;;5034447;28;20313;-37
2021/08/17 05:23:36;;;;;;;27.53;17.20;;;14.40;99.90;;;;;;5041068;28;20993;-37
2021/08/17 05:26:02;;;;;;;28.80;16.10;;;14.40;99.90;;;;;;5028192;28;20201;-37
2021/08/17 05:28:27;;;;;;;24.33;14.30;;;14.40;99.90;;;;;;5027988;28;20316;-38
2021/08/17 05:30:53;;;;;;;27.97;15.67;;;14.40;99.90;;;;;;5037175;28;20520;-37
2021/08/17 05:33:19;;;;;;;27.40;15.20;;;14.50;99.90;;;;;;5034270;28;20183;-38
2021/08/17 05:35:44;;;;;;;23.57;15.80;;;14.50;99.90;;;;;;5034792;28;20357;-37
2021/08/17 05:38:10;;;;;;;24.63;14.90;;;14.60;99.90;;;;;;5041358;28;20187;-37
2021/08/17 05:40:36;;;;;;;28.40;16.10;;;14.60;99.90;;;;;;5047423;28;20193;-37
2021/08/17 05:43:04;;;;;;;26.30;15.97;;;14.60;99.90;;;;;;5046925;28;20486;-37
2021/08/17 05:45:30;;;;;;;36.37;18.20;;;14.50;99.90;;;;;;5040454;28;20924;-38
2021/08/17 05:47:56;;;;;;;32.83;16.77;;;14.50;99.90;;;;;;5034568;28;20417;-37
2021/08/17 05:50:21;;;;;;;28.00;15.30;;;14.60;99.90;;;;;;5026108;28;20440;-37
2021/08/17 05:52:47;;;;;;;29.40;16.40;;;14.50;99.90;;;;;;5031449;28;20220;-38
2021/08/17 05:55:13;;;;;;;25.47;16.10;;;14.50;99.90;;;;;;5027850;28;20230;-37
2021/08/17 05:57:39;;;;;;;30.57;17.20;;;14.50;99.90;;;;;;5027814;28;20687;-38
2021/08/17 06:00:13;;;;;;;27.33;17.23;;;14.60;99.90;;;;;;5041095;28;20205;-37
2021/08/17 06:02:39;;;;;;;26.90;17.00;;;14.60;99.90;;;;;;5038904;28;20412;-38
2021/08/17 06:05:06;;;;;;;24.23;15.77;;;14.60;99.90;;;;;;5033170;28;20483;-37
2021/08/17 06:07:31;;;;;;;31.10;19.40;;;14.60;99.90;;;;;;5043034;28;20435;-37
2021/08/17 06:09:57;;;;;;;28.93;16.80;;;14.70;99.90;;;;;;5033345;28;20421;-38
2021/08/17 06:12:23;;;;;;;31.17;18.63;;;14.70;99.90;;;;;;5028900;28;20190;-37
2021/08/17 06:14:48;;;;;;;27.30;17.20;;;14.80;99.90;;;;;;5026981;28;20228;-37
2021/08/17 06:17:14;;;;;;;27.73;17.70;;;14.80;99.90;;;;;;5042792;28;20265;-37
2021/08/17 06:19:40;;;;;;;30.23;18.57;;;14.90;99.90;;;;;;5026564;28;20267;-37
2021/08/17 06:22:06;;;;;;;28.67;17.90;;;14.90;99.90;;;;;;5030305;28;20196;-37
2021/08/17 06:24:31;;;;;;;30.60;17.63;;;15.00;99.90;;;;;;5031898;28;20251;-38
2021/08/17 06:26:57;;;;;;;30.03;18.80;;;14.90;99.90;;;;;;5026303;28;20273;-37
2021/08/17 06:29:23;;;;;;;34.00;19.77;;;14.90;99.90;;;;;;5026281;28;20198;-37
2021/08/17 06:31:49;;;;;;;36.27;21.23;;;14.90;99.90;;;;;;5038969;28;20412;-37
2021/08/17 06:34:14;;;;;;;36.87;21.17;;;15.00;99.90;;;;;;5032076;28;20740;-37
2021/08/17 06:36:41;;;;;;;31.53;20.30;;;15.00;99.90;;;;;;5026782;28;20198;-37
2021/08/17 06:39:07;;;;;;;35.53;20.63;;;15.00;99.90;;;;;;5042113;28;20186;-37
2021/08/17 06:41:34;;;;;;;36.37;20.43;;;15.00;99.90;;;;;;5026868;28;20448;-38
2021/08/17 06:44:00;;;;;;;33.03;20.27;;;15.00;99.90;;;;;;5026072;28;20468;-38
2021/08/17 06:46:27;;;;;;;38.10;21.17;;;15.10;99.90;;;;;;5029331;28;20448;-38
2021/08/17 06:48:53;;;;;;;34.50;20.70;;;15.20;99.90;;;;;;5033363;28;20448;-38
2021/08/17 06:51:19;;;;;;;31.40;21.67;;;15.20;99.90;;;;;;5026589;28;20429;-37
2021/08/17 06:53:44;;;;;;;36.13;21.60;;;15.30;99.90;;;;;;5029204;28;20476;-38
2021/08/17 06:56:10;;;;;;;36.93;22.67;;;15.30;99.90;;;;;;5034532;28;20267;-37
2021/08/17 06:58:36;;;;;;;32.20;21.77;;;15.40;99.90;;;;;;5032001;28;20194;-38
2021/08/17 07:01:02;;;;;;;34.17;20.13;;;15.50;99.90;;;;;;5038250;28;20610;-38
2021/08/17 07:03:29;;;;;;;37.80;22.87;;;15.60;99.90;;;;;;5044301;28;20193;-37
2021/08/17 07:05:55;;;;;;;40.47;24.10;;;15.70;99.90;;;;;;5039597;28;20871;-38
2021/08/17 07:08:20;;;;;;;34.87;23.40;;;15.70;99.90;;;;;;5037591;28;20424;-38
2021/08/17 07:10:47;;;;;;;39.27;24.10;;;15.70;99.90;;;;;;5027689;28;20426;-38
2021/08/17 07:13:13;;;;;;;35.43;22.80;;;15.70;99.90;;;;;;5026379;28;20190;-38
2021/08/17 07:15:39;;;;;;;33.27;23.37;;;15.80;99.90;;;;;;5029114;28;20484;-38
2021/08/17 07:18:05;;;;;;;34.10;22.87;;;15.80;99.90;;;;;;5030668;28;20448;-38
2021/08/17 07:20:31;;;;;;;32.83;23.00;;;15.80;99.90;;;;;;5024319;28;20740;-38
2021/08/17 07:22:56;;;;;;;33.53;22.57;;;15.90;99.90;;;;;;5032647;28;20538;-38
2021/08/17 07:25:22;;;;;;;32.03;20.60;;;15.80;99.90;;;;;;5038109;28;20198;-38
2021/08/17 07:27:48;;;;;;;36.90;22.20;;;15.90;99.90;;;;;;5031636;28;20185;-38
2021/08/17 07:30:14;;;;;;;30.17;20.47;;;15.90;99.90;;;;;;5042672;28;20804;-39
2021/08/17 07:32:42;;;;;;;34.20;23.23;;;15.90;99.90;;;;;;5038881;28;20296;-38
2021/08/17 07:35:10;;;;;;;32.57;21.43;;;15.90;99.90;;;;;;5035321;28;20824;-40
2021/08/17 07:37:36;;;;;;;34.47;23.47;;;15.90;99.90;;;;;;5026516;28;20449;-38
2021/08/17 07:40:03;;;;;;;35.23;21.00;;;15.90;99.90;;;;;;5043654;28;20474;-38
2021/08/17 07:42:29;;;;;;;32.07;21.13;;;15.90;99.90;;;;;;5044111;28;20509;-38
2021/08/17 07:44:55;;;;;;;31.07;20.87;;;15.80;99.90;;;;;;5039882;28;20447;-38
2021/08/17 07:47:20;;;;;;;29.20;21.33;;;15.90;99.90;;;;;;5037027;28;20194;-38
2021/08/17 07:49:46;;;;;;;28.57;20.63;;;15.90;99.90;;;;;;5030225;28;20202;-38
2021/08/17 07:52:11;;;;;;;32.40;21.13;;;15.80;99.90;;;;;;5025923;28;20342;-38
2021/08/17 07:54:37;;;;;;;33.83;22.70;;;15.90;99.90;;;;;;5037258;28;20268;-38
2021/08/17 07:57:04;;;;;;;33.07;22.10;;;15.90;99.90;;;;;;5025797;28;20256;-37
2021/08/17 07:59:30;;;;;;;32.30;20.73;;;15.90;99.90;;;;;;5024802;28;20429;-38
2021/08/17 08:01:55;;;;;;;32.20;21.17;;;15.90;99.90;;;;;;5033929;28;20506;-38
2021/08/17 08:04:21;;;;;;;35.03;21.70;;;15.90;99.90;;;;;;5032089;28;20684;-38
2021/08/17 08:06:47;;;;;;;35.10;21.70;;;15.90;99.90;;;;;;5025873;28;20219;-38
2021/08/17 08:09:12;;;;;;;32.83;21.23;;;16.00;99.90;;;;;;5033089;28;20206;-38
2021/08/17 08:11:38;;;;;;;33.03;21.50;;;16.00;99.90;;;;;;5031802;28;20659;-38
2021/08/17 08:14:04;;;;;;;31.23;20.70;;;16.10;99.90;;;;;;5028824;28;20268;-38
2021/08/17 08:16:29;;;;;;;31.20;21.40;;;16.10;99.90;;;;;;5037582;28;20331;-39
2021/08/17 08:18:55;;;;;;;39.50;22.80;;;16.10;99.90;;;;;;5040913;28;20181;-38
2021/08/17 08:21:21;;;;;;;35.97;21.10;;;16.20;99.90;;;;;;5048717;28;20264;-38
2021/08/17 08:23:46;;;;;;;32.87;19.77;;;16.20;99.90;;;;;;5029490;28;20222;-38
2021/08/17 08:26:12;;;;;;;30.80;19.83;;;16.20;99.90;;;;;;5029445;28;20269;-41
2021/08/17 08:28:38;;;;;;;33.10;21.33;;;16.30;99.90;;;;;;5029082;28;20338;-38
2021/08/17 08:31:04;;;;;;;30.07;18.97;;;16.30;99.90;;;;;;5041383;28;20192;-38
2021/08/17 08:33:29;;;;;;;29.00;19.67;;;16.40;99.90;;;;;;5043992;28;20325;-38
2021/08/17 08:35:55;;;;;;;27.87;19.30;;;16.50;99.90;;;;;;5035377;28;20845;-39
2021/08/17 08:38:21;;;;;;;24.73;18.27;;;16.60;99.90;;;;;;5036362;28;20236;-39
2021/08/17 08:40:50;;;;;;;31.10;18.57;;;16.70;99.90;;;;;;5048193;28;20954;-38
2021/08/17 08:43:21;;;;;;;27.03;17.60;;;16.80;99.90;;;;;;5049229;28;20185;-38
2021/08/17 08:45:47;;;;;;;26.10;18.40;;;16.80;99.90;;;;;;5036905;28;21034;-39
2021/08/17 08:48:14;;;;;;;27.13;18.33;;;16.90;99.90;;;;;;5037114;28;20505;-38
2021/08/17 08:50:42;;;;;;;26.27;17.87;;;17.00;99.90;;;;;;5030286;28;20420;-38
2021/08/17 08:53:08;;;;;;;25.43;18.43;;;17.00;99.90;;;;;;5032638;28;20791;-38
2021/08/17 08:55:34;;;;;;;29.77;18.40;;;17.10;99.90;;;;;;5032595;28;20457;-39
2021/08/17 08:58:00;;;;;;;24.90;16.97;;;17.10;99.90;;;;;;5028893;28;20413;-38
2021/08/17 09:00:25;;;;;;;23.17;15.30;;;17.20;99.90;;;;;;5028304;28;20248;-38
2021/08/17 09:02:51;;;;;;;25.20;16.10;;;17.20;99.90;;;;;;5034796;28;20356;-39
2021/08/17 09:05:18;;;;;;;24.70;16.07;;;17.20;99.90;;;;;;5043788;28;20201;-41
2021/08/17 09:07:46;;;;;;;27.03;18.57;;;17.20;99.90;;;;;;5028590;28;20494;-38
2021/08/17 09:10:15;;;;;;;24.80;16.30;;;17.20;99.90;;;;;;5031894;28;20523;-38
2021/08/17 09:12:43;;;;;;;32.90;18.10;;;17.20;99.90;;;;;;5028358;28;20834;-39
2021/08/17 09:15:14;;;;;;;28.67;17.53;;;17.20;99.90;;;;;;5028064;28;20829;-38
2021/08/17 09:17:41;;;;;;;21.83;15.73;;;17.20;99.90;;;;;;5039717;28;20670;-40
2021/08/17 09:20:10;;;;;;;28.07;17.70;;;17.20;99.90;;;;;;5032411;28;20474;-42
2021/08/17 09:22:35;;;;;;;24.03;16.47;;;17.20;99.90;;;;;;5028405;28;20655;-41
2021/08/17 09:25:03;;;;;;;23.10;16.07;;;17.20;99.90;;;;;;5040771;28;20456;-39
2021/08/17 09:27:32;;;;;;;21.30;15.27;;;17.20;99.90;;;;;;5028090;28;20190;-40
2021/08/17 09:30:08;;;;;;;22.13;15.43;;;17.20;99.90;;;;;;5027314;28;20436;-39
2021/08/17 09:32:33;;;;;;;25.07;16.80;;;17.20;99.90;;;;;;5035585;28;20417;-39
2021/08/17 09:35:02;;;;;;;26.73;18.10;;;17.20;99.90;;;;;;5032395;28;20479;-39
2021/08/17 09:37:33;;;;;;;29.07;17.30;;;17.20;99.90;;;;;;5028082;28;20183;-38
2021/08/17 09:40:03;;;;;;;25.67;16.50;;;17.30;99.90;;;;;;5039149;28;20421;-39
2021/08/17 09:42:31;;;;;;;22.20;15.17;;;17.30;99.90;;;;;;5028105;28;20452;-39
2021/08/17 09:45:05;;;;;;;23.80;15.77;;;17.20;99.90;;;;;;5027674;28;20777;-39
2021/08/17 09:47:35;;;;;;;21.90;15.43;;;17.20;99.90;;;;;;5039745;28;20504;-38
2021/08/17 09:50:20;;;;;;;23.40;15.83;;;17.20;99.90;;;;;;5045963;28;20515;-39
2021/08/17 09:52:46;;;;;;;22.20;15.73;;;17.30;99.90;;;;;;5028282;28;20409;-38
2021/08/17 09:55:21;;;;;;;20.27;14.50;;;17.20;99.90;;;;;;5031393;28;20461;-38
2021/08/17 09:57:48;;;;;;;23.63;15.27;;;17.30;99.90;;;;;;5027872;28;20957;-39
2021/08/17 10:00:16;;;;;;;24.97;14.27;;;17.30;99.90;;;;;;5026670;28;20483;-39
2021/08/17 10:02:44;;;;;;;21.63;13.63;;;17.40;99.90;;;;;;5041850;28;20783;-42
2021/08/17 10:05:14;;;;;;;21.50;14.07;;;17.40;99.90;;;;;;5040599;28;20541;-38
2021/08/17 10:07:42;;;;;;;21.70;14.90;;;17.40;99.90;;;;;;5028072;28;20474;-41
2021/08/17 10:10:10;;;;;;;21.87;13.93;;;17.40;99.90;;;;;;5038068;28;21142;-39
2021/08/17 10:12:36;;;;;;;20.97;12.60;;;17.40;99.90;;;;;;5027574;28;20464;-39
2021/08/17 10:15:07;;;;;;;22.87;14.50;;;17.50;99.90;;;;;;5024092;28;20551;-38
2021/08/17 10:17:32;;;;;;;16.17;12.17;;;17.40;99.90;;;;;;5032666;28;20841;-38
2021/08/17 10:19:58;;;;;;;19.97;12.83;;;17.40;99.90;;;;;;5036636;28;20487;-39
2021/08/17 10:22:25;;;;;;;21.00;12.10;;;17.40;99.90;;;;;;5027249;28;20209;-39
2021/08/17 10:24:51;;;;;;;20.73;12.37;;;17.40;99.90;;;;;;5036207;28;20929;-40
2021/08/17 10:27:25;;;;;;;20.67;13.60;;;17.40;99.90;;;;;;5027538;28;20425;-38
2021/08/17 10:30:02;;;;;;;20.63;12.60;;;17.30;99.90;;;;;;5026578;28;20197;-38
2021/08/17 10:32:55;;;;;;;18.27;12.13;;;17.30;99.90;;;;;;5035889;28;20787;-39
2021/08/17 10:35:27;;;;;;;16.00;11.30;;;17.30;99.90;;;;;;5042922;28;20471;-38
2021/08/17 10:38:10;;;;;;;15.83;11.47;;;17.30;99.90;;;;;;5032348;28;20414;-38
2021/08/17 10:40:51;;;;;;;15.07;10.80;;;17.30;99.90;;;;;;5032919;28;20423;-40
2021/08/17 10:43:43;;;;;;;16.90;10.20;;;17.40;99.90;;;;;;5027047;28;20448;-39
2021/08/17 10:46:12;;;;;;;14.50;10.87;;;17.40;99.90;;;;;;5030571;28;20439;-39
2021/08/17 10:48:49;;;;;;;12.53;9.97;;;17.40;99.90;;;;;;5030760;28;20993;-38
2021/08/17 10:51:18;;;;;;;16.60;10.50;;;17.40;99.90;;;;;;5027499;28;20787;-38
2021/08/17 10:54:17;;;;;;;14.90;10.67;;;17.40;99.90;;;;;;5025599;28;20923;-38
2021/08/17 10:56:44;;;;;;;17.90;10.53;;;17.40;99.90;;;;;;5033715;28;20417;-39
2021/08/17 10:59:10;;;;;;;13.53;10.13;;;17.40;99.90;;;;;;5045735;28;20523;-38
2021/08/17 11:01:42;;;;;;;14.17;10.37;;;17.40;99.90;;;;;;5044684;28;20535;-38
2021/08/17 11:04:17;;;;;;;14.23;10.97;;;17.30;99.90;;;;;;5029112;28;20244;-38
2021/08/17 11:06:53;;;;;;;14.50;10.33;;;17.30;99.90;;;;;;5026342;28;21351;-40
2021/08/17 11:09:22;;;;;;;13.27;9.43;;;17.30;99.90;;;;;;5027608;28;20456;-38
2021/08/17 11:12:08;;;;;;;14.10;10.30;;;17.40;99.90;;;;;;5028469;28;20425;-39
2021/08/17 11:14:39;;;;;;;14.60;10.07;;;17.40;99.90;;;;;;5024870;28;20461;-38
2021/08/17 11:17:13;;;;;;;17.30;10.83;;;17.40;99.90;;;;;;5028448;28;20515;-38
2021/08/17 11:19:41;;;;;;;17.50;11.60;;;17.40;99.90;;;;;;5039882;28;20417;-40
2021/08/17 11:22:08;;;;;;;14.00;10.70;;;17.40;99.90;;;;;;5037632;28;20428;-39
2021/08/17 11:24:39;;;;;;;14.00;10.50;;;17.40;99.90;;;;;;5029610;28;20502;-39
2021/08/17 11:27:14;;;;;;;13.57;10.63;;;17.40;99.90;;;;;;5026209;28;20452;-39
2021/08/17 11:29:43;;;;;;;15.27;10.57;;;17.40;99.90;;;;;;5025540;28;20519;-39
2021/08/17 11:32:28;;;;;;;12.87;9.13;;;17.30;99.90;;;;;;5029757;28;20429;-41
2021/08/17 11:34:54;;;;;;;13.93;10.10;;;17.30;99.90;;;;;;5042467;28;21022;-39
2021/08/17 11:37:20;;;;;;;14.30;9.23;;;17.30;99.90;;;;;;5026104;28;20490;-39
2021/08/17 11:39:54;;;;;;;12.40;10.13;;;17.30;99.90;;;;;;5043208;28;20770;-39
2021/08/17 11:42:32;;;;;;;15.53;10.10;;;17.30;99.90;;;;;;5031317;28;20510;-38
2021/08/17 11:45:06;;;;;;;15.10;10.80;;;17.30;99.90;;;;;;5025700;28;20428;-39
2021/08/17 11:47:32;;;;;;;13.37;9.60;;;17.30;99.90;;;;;;5031020;28;20436;-39
2021/08/17 11:50:00;;;;;;;16.57;10.20;;;17.30;99.90;;;;;;5036957;28;20465;-39
2021/08/17 11:52:37;;;;;;;13.60;9.57;;;17.30;99.90;;;;;;5025990;28;20425;-38
2021/08/17 11:55:07;;;;;;;17.43;10.23;;;17.30;99.90;;;;;;5032837;28;20463;-40
2021/08/17 11:57:44;;;;;;;15.23;10.50;;;17.30;99.90;;;;;;5026030;28;20531;-39
2021/08/17 12:00:15;;;;;;;12.30;9.17;;;17.40;99.90;;;;;;5024997;28;20421;-38
2021/08/17 12:02:46;;;;;;;15.57;9.90;;;17.30;99.90;;;;;;5031694;28;20539;-41
2021/08/17 12:05:13;;;;;;;12.30;9.93;;;17.40;99.90;;;;;;5033654;28;20455;-38
2021/08/17 12:07:39;;;;;;;15.03;9.53;;;17.40;99.90;;;;;;5036843;28;20808;-39
2021/08/17 12:10:06;;;;;;;15.80;10.37;;;17.40;99.90;;;;;;5026173;28;20421;-38
2021/08/17 12:12:57;;;;;;;12.30;9.10;;;17.50;99.90;;;;;;5025986;28;20186;-39
2021/08/17 12:15:54;;;;;;;14.13;9.30;;;17.40;99.90;;;;;;5025312;28;20460;-39
2021/08/17 12:18:22;;;;;;;10.93;8.30;;;17.50;99.90;;;;;;5035123;28;20471;-39
2021/08/17 12:21:10;;;;;;;10.60;7.43;;;17.50;99.90;;;;;;5038733;28;20822;-38
2021/08/17 12:23:46;;;;;;;11.13;7.70;;;17.50;99.90;;;;;;5025763;28;20951;-38
2021/08/17 12:26:16;;;;;;;10.33;7.73;;;17.50;99.90;;;;;;5037463;28;20974;-39
2021/08/17 12:28:44;;;;;;;10.70;7.40;;;17.50;99.90;;;;;;5024855;28;20694;-39
2021/08/17 12:31:27;;;;;;;8.50;6.43;;;17.40;99.90;;;;;;5024799;28;20431;-38
2021/08/17 12:34:09;;;;;;;8.17;6.20;;;17.40;99.90;;;;;;5032460;28;20888;-38